Time;durP1;ratioP1;P1;durP2;ratioP2;P2;SDS_P1;SDS_P2;PMS_P1;PMS_P2;Temp;Humidity;BMP_temperature;BMP_pressure;BME280_temperature;BME280_humidity;BME280_pressure;Samples;Min_cycle;Max_cycle;Signal;HPM_P1;HPM_P2
2021/07/17 00:01:08;;;;;;;15.63;5.57;;;19.40;99.90;;;;;;4133928;28;20046;-71
2021/07/17 00:03:09;;;;;;;17.45;6.22;;;19.40;99.90;;;;;;4135048;28;20057;-71
2021/07/17 00:05:12;;;;;;;16.98;6.85;;;19.40;99.90;;;;;;4136286;28;20025;-71
2021/07/17 00:07:13;;;;;;;16.98;6.15;;;19.40;99.90;;;;;;4128775;28;20061;-71
2021/07/17 00:09:14;;;;;;;17.50;6.30;;;19.40;99.90;;;;;;4134537;28;20566;-71
2021/07/17 00:11:15;;;;;;;18.52;6.35;;;19.30;99.90;;;;;;4133462;28;20042;-71
2021/07/17 00:13:17;;;;;;;16.10;6.03;;;19.30;99.90;;;;;;4140572;28;20048;-71
2021/07/17 00:15:22;;;;;;;18.13;6.32;;;19.30;99.90;;;;;;4140012;28;20616;-71
2021/07/17 00:17:23;;;;;;;19.73;7.18;;;19.20;99.90;;;;;;4134459;28;20128;-71
2021/07/17 00:19:24;;;;;;;19.05;6.82;;;19.20;99.90;;;;;;4134934;28;20034;-71
2021/07/17 00:21:24;;;;;;;16.15;6.50;;;19.20;99.90;;;;;;4135497;28;20046;-71
2021/07/17 00:23:25;;;;;;;20.77;6.63;;;19.20;99.90;;;;;;4136050;28;20038;-70
2021/07/17 00:25:26;;;;;;;17.27;6.75;;;19.20;99.90;;;;;;4133269;28;20041;-71
2021/07/17 00:27:26;;;;;;;13.85;5.60;;;19.10;99.90;;;;;;4128242;28;20034;-71
2021/07/17 00:29:27;;;;;;;18.92;7.30;;;19.20;99.90;;;;;;4135105;28;20050;-71
2021/07/17 00:31:27;;;;;;;17.17;6.07;;;19.20;99.90;;;;;;4135455;28;20038;-71
2021/07/17 00:33:28;;;;;;;20.90;6.60;;;19.20;99.90;;;;;;4128418;28;20065;-71
2021/07/17 00:35:29;;;;;;;17.20;6.88;;;19.10;99.90;;;;;;4140011;28;20039;-71
2021/07/17 00:37:29;;;;;;;14.00;6.40;;;19.10;99.90;;;;;;4118354;28;20146;-71
2021/07/17 00:39:30;;;;;;;20.40;7.13;;;19.10;99.90;;;;;;4136015;28;20050;-71
2021/07/17 00:41:30;;;;;;;14.07;6.18;;;19.10;99.90;;;;;;4138663;28;20732;-71
2021/07/17 00:43:32;;;;;;;19.48;7.40;;;19.10;99.90;;;;;;4135320;28;20042;-71
2021/07/17 00:45:33;;;;;;;20.33;6.60;;;19.00;99.90;;;;;;4134199;28;20038;-71
2021/07/17 00:47:36;;;;;;;19.13;6.55;;;19.00;99.90;;;;;;4131391;28;20045;-71
2021/07/17 00:49:36;;;;;;;27.80;8.05;;;19.00;99.90;;;;;;4136853;28;20062;-71
2021/07/17 00:51:37;;;;;;;14.45;5.82;;;19.00;99.90;;;;;;4134852;28;20108;-72
2021/07/17 00:53:38;;;;;;;18.63;6.65;;;18.90;99.90;;;;;;4137244;28;20026;-71
2021/07/17 00:55:42;;;;;;;21.50;7.30;;;19.00;99.90;;;;;;4134117;28;20877;-71
2021/07/17 00:57:46;;;;;;;19.10;7.13;;;18.90;99.90;;;;;;4133752;28;20041;-71
2021/07/17 00:59:47;;;;;;;15.65;6.15;;;18.90;99.90;;;;;;4136374;28;20034;-71
2021/07/17 01:01:51;;;;;;;20.85;7.15;;;18.90;99.90;;;;;;4136721;28;20054;-71
2021/07/17 01:03:54;;;;;;;20.35;7.22;;;18.90;99.90;;;;;;4141879;28;20398;-71
2021/07/17 01:05:55;;;;;;;16.63;7.03;;;18.90;99.90;;;;;;4142286;28;20370;-71
2021/07/17 01:07:56;;;;;;;20.38;7.05;;;18.90;99.90;;;;;;4117166;28;20709;-71
2021/07/17 01:09:57;;;;;;;21.73;7.47;;;18.80;99.90;;;;;;4142433;28;20069;-71
2021/07/17 01:11:58;;;;;;;17.17;7.00;;;18.90;99.90;;;;;;4140543;28;20038;-71
2021/07/17 01:13:58;;;;;;;18.33;7.50;;;18.90;99.90;;;;;;4132650;28;20042;-71
2021/07/17 01:15:59;;;;;;;16.58;6.78;;;18.80;99.90;;;;;;4134215;28;20707;-71
2021/07/17 01:17:59;;;;;;;21.17;7.68;;;18.80;99.90;;;;;;4137149;28;20043;-71
2021/07/17 01:20:01;;;;;;;23.50;7.38;;;18.80;99.90;;;;;;4138403;28;20515;-71
2021/07/17 01:22:02;;;;;;;16.13;7.50;;;18.80;99.90;;;;;;4133619;28;20041;-71
2021/07/17 01:24:03;;;;;;;20.17;6.90;;;18.80;99.90;;;;;;4140379;28;20045;-71
2021/07/17 01:26:03;;;;;;;16.02;7.00;;;18.80;99.90;;;;;;4142487;28;20046;-71
2021/07/17 01:28:04;;;;;;;22.25;7.72;;;18.80;99.90;;;;;;4142215;28;20093;-71
2021/07/17 01:30:12;;;;;;;21.40;7.50;;;18.80;99.90;;;;;;4137602;28;20042;-71
2021/07/17 01:32:17;;;;;;;20.35;7.20;;;18.80;99.90;;;;;;4137723;28;20125;-71
2021/07/17 01:34:17;;;;;;;21.52;7.50;;;18.80;99.90;;;;;;4136462;28;20041;-71
2021/07/17 01:36:18;;;;;;;17.27;6.35;;;18.80;99.90;;;;;;4130659;28;20041;-71
2021/07/17 01:38:18;;;;;;;16.65;7.70;;;18.80;99.90;;;;;;4140964;28;20069;-71
2021/07/17 01:40:20;;;;;;;15.45;6.95;;;18.80;99.90;;;;;;4142852;28;20093;-71
2021/07/17 01:42:21;;;;;;;17.08;6.70;;;18.80;99.90;;;;;;4138772;28;20042;-71
2021/07/17 01:44:21;;;;;;;21.35;7.00;;;18.80;99.90;;;;;;4140445;28;20050;-71
2021/07/17 01:46:22;;;;;;;19.08;7.43;;;18.80;99.90;;;;;;4143463;28;20042;-71
2021/07/17 01:48:23;;;;;;;20.50;7.45;;;18.80;99.90;;;;;;4138714;28;20053;-71
2021/07/17 01:50:29;;;;;;;17.80;7.15;;;18.80;99.90;;;;;;4131733;28;20679;-71
2021/07/17 01:52:30;;;;;;;18.00;8.07;;;18.80;99.90;;;;;;4134920;28;20040;-71
2021/07/17 01:54:38;;;;;;;18.23;7.22;;;18.80;99.90;;;;;;4140475;28;20042;-71
2021/07/17 01:56:38;;;;;;;15.52;7.22;;;18.80;99.90;;;;;;4136889;28;20050;-71
2021/07/17 01:58:39;;;;;;;16.17;6.60;;;18.80;99.90;;;;;;4136216;28;20093;-71
2021/07/17 02:00:40;;;;;;;18.85;6.68;;;18.80;99.90;;;;;;4133129;28;20140;-71
2021/07/17 02:02:42;;;;;;;25.95;7.68;;;18.80;99.90;;;;;;4120090;28;20061;-71
2021/07/17 02:04:42;;;;;;;18.30;6.73;;;18.80;99.90;;;;;;4142140;28;20036;-71
2021/07/17 02:06:43;;;;;;;16.80;6.40;;;18.70;99.90;;;;;;4136011;28;20034;-71
2021/07/17 02:08:43;;;;;;;21.45;7.25;;;18.80;99.90;;;;;;4136503;28;20453;-71
2021/07/17 02:10:44;;;;;;;23.20;7.70;;;18.80;99.90;;;;;;4138324;28;20064;-71
2021/07/17 02:12:57;;;;;;;20.05;7.32;;;18.80;99.90;;;;;;4139683;28;20054;-71
2021/07/17 02:14:57;;;;;;;16.70;6.45;;;18.70;99.90;;;;;;4137666;28;20034;-71
2021/07/17 02:16:58;;;;;;;26.80;7.88;;;18.70;99.90;;;;;;4131739;28;20637;-71
2021/07/17 02:19:10;;;;;;;15.80;5.95;;;18.80;99.90;;;;;;4133437;28;20046;-71
2021/07/17 02:21:12;;;;;;;16.65;6.45;;;18.80;99.90;;;;;;4134709;28;20057;-71
2021/07/17 02:23:13;;;;;;;18.73;6.57;;;18.80;99.90;;;;;;4138903;28;20060;-71
2021/07/17 02:25:13;;;;;;;18.10;7.60;;;18.80;99.90;;;;;;4137577;28;20065;-71
2021/07/17 02:27:14;;;;;;;19.33;6.20;;;18.80;99.90;;;;;;4139053;28;20080;-71
2021/07/17 02:29:16;;;;;;;16.23;6.50;;;18.80;99.90;;;;;;4133993;28;20042;-71
2021/07/17 02:31:16;;;;;;;20.20;6.88;;;18.80;99.90;;;;;;4141216;28;20053;-71
2021/07/17 02:33:17;;;;;;;15.55;6.50;;;18.70;99.90;;;;;;4137819;28;20101;-71
2021/07/17 02:35:18;;;;;;;21.85;7.03;;;18.80;99.90;;;;;;4134023;28;20042;-71
2021/07/17 02:37:20;;;;;;;17.77;7.65;;;18.80;99.90;;;;;;4135081;28;20494;-71
2021/07/17 02:39:21;;;;;;;16.27;6.75;;;18.80;99.90;;;;;;4133088;28;20718;-71
2021/07/17 02:41:22;;;;;;;14.23;5.88;;;18.70;99.90;;;;;;4138454;28;20042;-71
2021/07/17 02:43:22;;;;;;;22.42;7.60;;;18.80;99.90;;;;;;4141990;28;20584;-71
2021/07/17 02:45:23;;;;;;;18.95;7.28;;;18.80;99.90;;;;;;4140640;28;20030;-71
2021/07/17 02:47:24;;;;;;;31.70;8.55;;;18.80;99.90;;;;;;4137591;28;20068;-71
2021/07/17 02:49:24;;;;;;;22.80;7.70;;;18.80;99.90;;;;;;4138370;28;20398;-71
2021/07/17 02:51:25;;;;;;;15.15;6.00;;;18.80;99.90;;;;;;4133197;28;20105;-71
2021/07/17 02:53:25;;;;;;;15.85;6.65;;;18.70;99.90;;;;;;4133343;28;20045;-71
2021/07/17 02:55:26;;;;;;;19.02;6.10;;;18.70;99.90;;;;;;4136474;28;20413;-71
2021/07/17 02:57:27;;;;;;;18.45;6.88;;;18.70;99.90;;;;;;4136052;28;20755;-71
2021/07/17 02:59:28;;;;;;;20.35;6.70;;;18.80;99.90;;;;;;4136976;28;20686;-71
2021/07/17 03:01:29;;;;;;;13.85;6.35;;;18.80;99.90;;;;;;4134042;28;20030;-71
2021/07/17 03:03:30;;;;;;;24.85;7.07;;;18.70;99.90;;;;;;4138983;28;20566;-71
2021/07/17 03:05:30;;;;;;;19.38;6.68;;;18.70;99.90;;;;;;4133186;28;20125;-71
2021/07/17 03:07:31;;;;;;;19.23;7.03;;;18.70;99.90;;;;;;4135740;28;20034;-71
2021/07/17 03:09:32;;;;;;;16.13;5.88;;;18.70;99.90;;;;;;4134138;28;20104;-71
2021/07/17 03:11:33;;;;;;;15.35;5.70;;;18.70;99.90;;;;;;4121517;28;20430;-71
2021/07/17 03:13:34;;;;;;;17.02;7.22;;;18.70;99.90;;;;;;4141322;28;20041;-71
2021/07/17 03:15:34;;;;;;;16.75;5.78;;;18.70;99.90;;;;;;4136530;28;20100;-71
2021/07/17 03:17:35;;;;;;;14.38;5.80;;;18.70;99.90;;;;;;4138473;28;21564;-71
2021/07/17 03:19:36;;;;;;;16.27;6.35;;;18.80;99.90;;;;;;4136888;28;20042;-71
2021/07/17 03:21:36;;;;;;;18.35;6.78;;;18.80;99.90;;;;;;4134342;28;20045;-71
2021/07/17 03:23:37;;;;;;;21.63;7.82;;;18.80;99.90;;;;;;4136571;28;20088;-71
2021/07/17 03:25:37;;;;;;;18.00;6.82;;;18.70;99.90;;;;;;4131885;28;20061;-71
2021/07/17 03:27:38;;;;;;;22.95;8.02;;;18.80;99.90;;;;;;4141469;28;20034;-71
2021/07/17 03:29:39;;;;;;;17.83;7.25;;;18.70;99.90;;;;;;4138004;28;20044;-71
2021/07/17 03:31:39;;;;;;;19.80;7.18;;;18.70;99.90;;;;;;4140211;28;20040;-71
2021/07/17 03:33:40;;;;;;;19.90;7.22;;;18.80;99.90;;;;;;4132076;28;20050;-71
2021/07/17 03:35:40;;;;;;;13.80;5.63;;;18.80;99.90;;;;;;4136896;28;20040;-71
2021/07/17 03:37:41;;;;;;;17.83;6.15;;;18.80;99.90;;;;;;4137072;28;20038;-71
2021/07/17 03:39:42;;;;;;;19.08;6.63;;;18.80;99.90;;;;;;4132047;28;20679;-71
2021/07/17 03:41:42;;;;;;;19.90;7.10;;;18.70;99.90;;;;;;4132914;28;20785;-71
2021/07/17 03:43:44;;;;;;;17.85;7.10;;;18.80;99.90;;;;;;4137549;28;20125;-70
2021/07/17 03:45:44;;;;;;;22.20;7.25;;;18.80;99.90;;;;;;4133416;28;20042;-71
2021/07/17 03:47:45;;;;;;;22.02;6.93;;;18.70;99.90;;;;;;4135659;28;20030;-71
2021/07/17 03:49:46;;;;;;;21.77;6.97;;;18.70;99.90;;;;;;4137092;28;20070;-70
2021/07/17 03:51:46;;;;;;;19.13;6.68;;;18.70;99.90;;;;;;4134178;28;20040;-71
2021/07/17 03:53:48;;;;;;;21.65;7.93;;;18.70;99.90;;;;;;4133506;28;20042;-71
2021/07/17 03:55:48;;;;;;;21.65;8.00;;;18.60;99.90;;;;;;4138417;28;20038;-71
2021/07/17 03:57:49;;;;;;;22.30;7.72;;;18.60;99.90;;;;;;4136891;28;20037;-71
2021/07/17 03:59:49;;;;;;;24.13;7.78;;;18.60;99.90;;;;;;4134708;28;20039;-71
2021/07/17 04:01:53;;;;;;;30.83;8.30;;;18.60;99.90;;;;;;4138835;28;20033;-71
2021/07/17 04:03:53;;;;;;;22.60;7.90;;;18.60;99.90;;;;;;4139825;28;20141;-71
2021/07/17 04:05:54;;;;;;;24.58;8.20;;;18.60;99.90;;;;;;4135686;28;20033;-71
2021/07/17 04:07:54;;;;;;;26.63;8.20;;;18.50;99.90;;;;;;4133883;28;20112;-71
2021/07/17 04:09:55;;;;;;;22.13;7.20;;;18.60;99.90;;;;;;4139917;28;20636;-71
2021/07/17 04:11:56;;;;;;;21.98;7.07;;;18.50;99.90;;;;;;4138670;28;20038;-71
2021/07/17 04:13:57;;;;;;;22.80;7.38;;;18.50;99.90;;;;;;4134880;28;20044;-71
2021/07/17 04:15:57;;;;;;;16.30;5.93;;;18.50;99.90;;;;;;4137847;28;20088;-71
2021/07/17 04:17:58;;;;;;;29.25;8.27;;;18.60;99.90;;;;;;4138896;28;20077;-71
2021/07/17 04:19:59;;;;;;;24.65;7.97;;;18.50;99.90;;;;;;4136504;28;20108;-70
2021/07/17 04:21:59;;;;;;;22.17;6.80;;;18.40;99.90;;;;;;4136694;28;20038;-71
2021/07/17 04:24:00;;;;;;;22.63;7.70;;;18.40;99.90;;;;;;4138040;28;20040;-71
2021/07/17 04:26:00;;;;;;;20.92;7.85;;;18.40;99.90;;;;;;4139767;28;20034;-71
2021/07/17 04:28:01;;;;;;;20.23;6.78;;;18.40;99.90;;;;;;4139707;28;20177;-71
2021/07/17 04:30:02;;;;;;;20.35;8.05;;;18.40;99.90;;;;;;4137939;28;20033;-71
2021/07/17 04:32:04;;;;;;;;;;;18.40;99.90;;;;;;4138677;28;20062;-71
2021/07/17 04:34:05;;;;;;;17.90;6.82;;;18.40;99.90;;;;;;4138227;28;20285;-70
2021/07/17 04:36:08;;;;;;;22.17;6.97;;;18.40;99.90;;;;;;4135620;28;20045;-71
2021/07/17 04:38:09;;;;;;;19.08;7.35;;;18.40;99.90;;;;;;4140169;28;20048;-71
2021/07/17 04:40:10;;;;;;;28.63;8.73;;;18.50;99.90;;;;;;4136744;28;20438;-71
2021/07/17 04:42:11;;;;;;;19.23;7.28;;;18.50;99.90;;;;;;4132869;28;20052;-70
2021/07/17 04:44:11;;;;;;;18.20;7.22;;;18.40;99.90;;;;;;4139450;28;20065;-70
2021/07/17 04:46:12;;;;;;;18.27;7.22;;;18.40;99.90;;;;;;4118849;28;20062;-71
2021/07/17 04:48:12;;;;;;;15.18;6.05;;;18.50;99.90;;;;;;4132540;28;20096;-71
2021/07/17 04:50:13;;;;;;;19.85;7.68;;;18.50;99.90;;;;;;4136115;28;20045;-71
2021/07/17 04:52:14;;;;;;;17.42;7.03;;;18.50;99.90;;;;;;4113858;28;20397;-70
2021/07/17 04:54:15;;;;;;;18.15;7.38;;;18.50;99.90;;;;;;4140094;28;20042;-71
2021/07/17 04:56:15;;;;;;;21.85;6.80;;;18.50;99.90;;;;;;4140990;28;20077;-71
2021/07/17 04:58:16;;;;;;;14.35;6.32;;;18.50;99.90;;;;;;4132802;28;20078;-71
2021/07/17 05:00:17;;;;;;;15.55;6.20;;;18.50;99.90;;;;;;4132853;28;20030;-71
2021/07/17 05:02:17;;;;;;;23.20;7.47;;;18.50;99.90;;;;;;4131979;28;20146;-70
2021/07/17 05:04:18;;;;;;;18.08;6.63;;;18.50;99.90;;;;;;4135388;28;20037;-71
2021/07/17 05:06:19;;;;;;;17.50;7.25;;;18.40;99.90;;;;;;4135326;28;20043;-71
2021/07/17 05:08:19;;;;;;;17.55;7.20;;;18.50;99.90;;;;;;4139352;28;20515;-71
2021/07/17 05:10:23;;;;;;;16.30;6.60;;;18.50;99.90;;;;;;4135446;28;20029;-71
2021/07/17 05:12:23;;;;;;;15.32;6.72;;;18.50;99.90;;;;;;4131889;28;20041;-71
2021/07/17 05:14:24;;;;;;;18.95;6.80;;;18.50;99.90;;;;;;4136650;28;20172;-71
2021/07/17 05:16:24;;;;;;;18.98;6.75;;;18.50;99.90;;;;;;4140358;28;20046;-71
2021/07/17 05:18:25;;;;;;;15.60;6.00;;;18.50;99.90;;;;;;4135591;28;20042;-70
2021/07/17 05:20:26;;;;;;;19.70;7.78;;;18.60;99.90;;;;;;4130454;28;20042;-71
2021/07/17 05:22:26;;;;;;;20.00;7.57;;;18.60;99.90;;;;;;4126600;28;20049;-71
2021/07/17 05:24:27;;;;;;;17.48;6.70;;;18.50;99.90;;;;;;4135894;28;20041;-71
2021/07/17 05:26:27;;;;;;;19.23;7.47;;;18.50;99.90;;;;;;4136222;28;20053;-71
2021/07/17 05:28:28;;;;;;;14.48;6.32;;;18.50;99.90;;;;;;4140369;28;20774;-71
2021/07/17 05:30:29;;;;;;;17.27;6.88;;;18.60;99.90;;;;;;4138252;28;20045;-71
2021/07/17 05:32:30;;;;;;;16.20;6.65;;;18.60;99.90;;;;;;4136692;28;20061;-70
2021/07/17 05:34:30;;;;;;;17.45;6.75;;;18.60;99.90;;;;;;4141921;28;20054;-71
2021/07/17 05:36:31;;;;;;;13.65;6.10;;;18.60;99.90;;;;;;4112549;28;20609;-71
2021/07/17 05:38:31;;;;;;;16.85;6.53;;;18.60;99.90;;;;;;4173124;23;20030;-71
2021/07/17 05:40:32;;;;;;;18.45;6.80;;;18.60;99.90;;;;;;4141284;28;20033;-71
2021/07/17 05:42:33;;;;;;;13.23;6.43;;;18.60;99.90;;;;;;4144941;28;20095;-70
2021/07/17 05:44:33;;;;;;;19.17;6.70;;;18.60;99.90;;;;;;4149580;28;20053;-71
2021/07/17 05:46:34;;;;;;;11.93;5.90;;;18.70;99.90;;;;;;4134648;28;20045;-71
2021/07/17 05:48:35;;;;;;;22.95;8.15;;;18.60;99.90;;;;;;4148283;28;20049;-71
2021/07/17 05:50:36;;;;;;;20.77;7.00;;;18.60;99.90;;;;;;4131590;28;20084;-71
2021/07/17 05:52:36;;;;;;;22.13;7.35;;;18.60;99.90;;;;;;4139403;28;20436;-71
2021/07/17 05:54:37;;;;;;;16.55;6.68;;;18.60;99.90;;;;;;4155003;28;20042;-71
2021/07/17 05:56:37;;;;;;;15.02;6.53;;;18.60;99.90;;;;;;4146359;28;20038;-71
2021/07/17 05:58:38;;;;;;;20.27;7.43;;;18.60;99.90;;;;;;4151458;28;20029;-70
2021/07/17 06:00:40;;;;;;;17.17;6.72;;;18.60;99.90;;;;;;4154896;28;20097;-70
2021/07/17 06:02:41;;;;;;;16.20;5.68;;;18.60;99.90;;;;;;4158600;28;20053;-70
2021/07/17 06:04:42;;;;;;;15.90;6.20;;;18.70;99.90;;;;;;4132763;28;20684;-72
2021/07/17 06:06:42;;;;;;;14.65;7.25;;;18.70;99.90;;;;;;4153355;28;20034;-71
2021/07/17 06:08:43;;;;;;;12.57;6.10;;;18.70;99.90;;;;;;4157646;28;20053;-72
2021/07/17 06:10:43;;;;;;;11.20;5.75;;;18.70;99.90;;;;;;4141305;28;20114;-71
2021/07/17 06:12:44;;;;;;;15.07;6.38;;;18.80;99.90;;;;;;4149022;28;20061;-72
2021/07/17 06:14:45;;;;;;;17.90;6.55;;;18.80;99.90;;;;;;4158115;28;20080;-72
2021/07/17 06:16:45;;;;;;;12.38;5.63;;;18.80;99.90;;;;;;4151940;28;20040;-71
2021/07/17 06:18:46;;;;;;;15.43;6.55;;;18.80;99.90;;;;;;4158067;28;20034;-71
2021/07/17 06:20:46;;;;;;;18.98;7.00;;;18.80;99.90;;;;;;4154630;28;20732;-71
2021/07/17 06:22:47;;;;;;;14.57;6.38;;;18.80;99.90;;;;;;4133074;28;20507;-71
2021/07/17 06:24:48;;;;;;;15.93;6.07;;;18.80;99.90;;;;;;4140926;28;20061;-72
2021/07/17 06:26:49;;;;;;;20.10;6.32;;;18.80;99.90;;;;;;4136211;28;20064;-72
2021/07/17 06:28:49;;;;;;;15.00;6.13;;;18.90;99.90;;;;;;4155702;28;20502;-72
2021/07/17 06:30:50;;;;;;;18.83;6.80;;;18.90;99.90;;;;;;4156331;28;20046;-72
2021/07/17 06:32:50;;;;;;;19.67;6.78;;;18.90;99.90;;;;;;4157701;28;20029;-72
2021/07/17 06:34:51;;;;;;;15.18;6.35;;;18.80;99.90;;;;;;4140985;28;20046;-72
2021/07/17 06:36:52;;;;;;;15.50;6.40;;;18.90;99.90;;;;;;4137131;28;20026;-72
2021/07/17 06:38:52;;;;;;;19.10;6.53;;;18.90;99.90;;;;;;4130980;28;20462;-72
2021/07/17 06:40:53;;;;;;;21.23;7.35;;;18.90;99.90;;;;;;4147101;28;20030;-72
2021/07/17 06:42:53;;;;;;;16.05;5.55;;;18.90;99.90;;;;;;4129558;28;20185;-72
2021/07/17 06:44:54;;;;;;;14.90;6.65;;;18.90;99.90;;;;;;4145424;28;20035;-72
2021/07/17 06:46:55;;;;;;;19.02;6.50;;;18.90;99.90;;;;;;4148556;28;20034;-72
2021/07/17 06:48:55;;;;;;;13.45;6.10;;;18.90;99.90;;;;;;4144966;28;20023;-72
2021/07/17 06:50:56;;;;;;;21.08;6.90;;;18.90;99.90;;;;;;4124597;28;20082;-72
2021/07/17 06:52:57;;;;;;;14.73;6.47;;;19.00;99.90;;;;;;4126800;28;20458;-72
2021/07/17 06:54:57;;;;;;;15.60;6.05;;;19.00;99.90;;;;;;4147995;28;20120;-72
2021/07/17 06:56:58;;;;;;;15.65;6.20;;;19.00;99.90;;;;;;4136376;28;20113;-72
2021/07/17 06:58:59;;;;;;;16.27;5.65;;;19.00;99.90;;;;;;4143413;28;20509;-72
2021/07/17 07:00:59;;;;;;;20.48;8.02;;;19.00;99.90;;;;;;4108647;28;20163;-72
2021/07/17 07:03:01;;;;;;;18.95;7.13;;;19.00;99.90;;;;;;4130456;28;20030;-72
2021/07/17 07:05:02;;;;;;;20.30;8.63;;;19.00;99.90;;;;;;4143976;28;20046;-72
2021/07/17 07:07:03;;;;;;;14.90;7.80;;;19.00;99.90;;;;;;4147868;28;20034;-72
2021/07/17 07:09:04;;;;;;;21.80;10.13;;;19.00;99.90;;;;;;4148011;28;20533;-72
2021/07/17 07:11:04;;;;;;;23.63;7.45;;;19.00;99.90;;;;;;4147445;28;20036;-72
2021/07/17 07:13:17;;;;;;;15.95;6.90;;;19.00;99.90;;;;;;4115650;28;20515;-72
2021/07/17 07:15:18;;;;;;;18.48;6.95;;;19.00;99.90;;;;;;4137613;28;20047;-72
2021/07/17 07:17:19;;;;;;;17.65;7.18;;;19.00;99.90;;;;;;4141410;28;20133;-72
2021/07/17 07:19:19;;;;;;;13.00;5.68;;;19.10;99.90;;;;;;4140886;28;20049;-72
2021/07/17 07:21:21;;;;;;;13.50;6.13;;;19.10;99.90;;;;;;4143164;28;20049;-72
2021/07/17 07:23:21;;;;;;;14.93;6.10;;;19.10;99.90;;;;;;4125133;28;20085;-72
2021/07/17 07:25:22;;;;;;;19.52;7.32;;;19.20;99.90;;;;;;4140054;28;20038;-72
2021/07/17 07:27:23;;;;;;;15.93;6.45;;;19.20;99.90;;;;;;4151698;28;20060;-72
2021/07/17 07:29:24;;;;;;;17.13;7.47;;;19.20;99.90;;;;;;4124258;28;20074;-72
2021/07/17 07:31:26;;;;;;;12.80;6.28;;;19.20;99.90;;;;;;4140090;28;20041;-72
2021/07/17 07:33:26;;;;;;;17.85;7.80;;;19.20;99.90;;;;;;4140777;28;20646;-72
2021/07/17 07:35:27;;;;;;;15.45;6.97;;;19.20;99.90;;;;;;4122547;28;20027;-72
2021/07/17 07:37:28;;;;;;;12.80;6.65;;;19.30;99.90;;;;;;4134342;28;20392;-72
2021/07/17 07:39:28;;;;;;;21.95;7.32;;;19.30;99.90;;;;;;4147381;28;20048;-72
2021/07/17 07:41:29;;;;;;;17.92;5.90;;;19.30;99.90;;;;;;4132624;28;20049;-72
2021/07/17 07:43:30;;;;;;;13.63;5.20;;;19.40;99.90;;;;;;4150946;28;20029;-72
2021/07/17 07:45:30;;;;;;;17.08;5.90;;;19.40;99.90;;;;;;4144973;28;20659;-72
2021/07/17 07:47:31;;;;;;;14.85;6.95;;;19.40;99.90;;;;;;4144086;28;21532;-72
2021/07/17 07:49:32;;;;;;;14.10;5.85;;;19.50;99.90;;;;;;4140873;28;20528;-72
2021/07/17 07:51:33;;;;;;;17.10;6.18;;;19.50;99.90;;;;;;4141726;28;20621;-72
2021/07/17 07:53:34;;;;;;;14.18;6.25;;;19.60;99.90;;;;;;4118500;28;20142;-72
2021/07/17 07:55:34;;;;;;;15.52;5.95;;;19.70;99.90;;;;;;4139031;28;20398;-72
2021/07/17 07:57:35;;;;;;;13.73;5.43;;;19.70;99.90;;;;;;4119038;28;20046;-72
2021/07/17 07:59:36;;;;;;;10.77;4.72;;;19.80;99.90;;;;;;4135027;28;20046;-72
2021/07/17 08:01:36;;;;;;;12.25;4.55;;;19.90;99.90;;;;;;4139678;28;20112;-73
2021/07/17 08:03:37;;;;;;;13.60;5.03;;;19.90;99.90;;;;;;4144071;28;20121;-73
2021/07/17 08:05:37;;;;;;;9.93;4.35;;;20.00;99.90;;;;;;4132267;28;20050;-74
2021/07/17 08:07:38;;;;;;;13.30;5.07;;;20.00;99.90;;;;;;4128992;28;20035;-73
2021/07/17 08:09:38;;;;;;;12.45;4.40;;;20.00;99.90;;;;;;4148507;28;20052;-73
2021/07/17 08:11:39;;;;;;;10.73;4.75;;;20.10;99.90;;;;;;4136680;28;20036;-73
2021/07/17 08:13:40;;;;;;;12.27;4.68;;;20.20;99.90;;;;;;4103776;28;20042;-72
2021/07/17 08:15:41;;;;;;;11.48;4.00;;;20.30;99.90;;;;;;4142812;28;20033;-74
2021/07/17 08:17:42;;;;;;;12.38;5.07;;;20.30;99.90;;;;;;4141655;28;20041;-73
2021/07/17 08:19:43;;;;;;;11.00;4.22;;;20.40;99.90;;;;;;4122458;28;20217;-73
2021/07/17 08:21:44;;;;;;;19.55;5.15;;;20.40;99.90;;;;;;4134871;28;20461;-73
2021/07/17 08:23:45;;;;;;;13.00;5.45;;;20.50;99.90;;;;;;4141617;28;20068;-73
2021/07/17 08:25:46;;;;;;;9.95;3.75;;;20.50;99.90;;;;;;4126500;28;20065;-73
2021/07/17 08:27:46;;;;;;;12.35;4.15;;;20.50;99.90;;;;;;4115595;28;20026;-73
2021/07/17 08:29:47;;;;;;;10.27;4.43;;;20.60;99.90;;;;;;4139616;28;20057;-73
2021/07/17 08:31:48;;;;;;;11.45;3.65;;;20.60;99.90;;;;;;4121862;28;20080;-73
2021/07/17 08:33:48;;;;;;;11.15;4.20;;;20.70;99.90;;;;;;4144434;28;20620;-73
2021/07/17 08:35:49;;;;;;;7.30;3.40;;;20.80;99.90;;;;;;4144977;28;20504;-73
2021/07/17 08:37:50;;;;;;;12.60;3.60;;;20.90;99.90;;;;;;4138403;28;20123;-73
2021/07/17 08:39:51;;;;;;;7.30;3.47;;;21.00;99.90;;;;;;4140482;28;20160;-73
2021/07/17 08:41:52;;;;;;;7.10;3.33;;;21.00;99.90;;;;;;4120136;28;20594;-73
2021/07/17 08:43:55;;;;;;;8.73;3.60;;;21.10;99.90;;;;;;4139257;28;20099;-73
2021/07/17 08:45:56;;;;;;;8.48;3.72;;;21.10;99.90;;;;;;4148063;28;20124;-73
2021/07/17 08:47:57;;;;;;;10.80;3.80;;;21.20;99.90;;;;;;4136825;28;20062;-73
2021/07/17 08:50:00;;;;;;;9.55;3.53;;;21.30;99.90;;;;;;4124778;28;20045;-73
2021/07/17 08:52:02;;;;;;;13.30;4.13;;;21.50;99.90;;;;;;4136449;28;20034;-74
2021/07/17 08:54:04;;;;;;;6.85;3.60;;;21.60;99.90;;;;;;4110422;28;20042;-73
2021/07/17 08:56:04;;;;;;;11.90;4.10;;;21.70;99.90;;;;;;4139003;28;20029;-73
2021/07/17 08:58:05;;;;;;;12.75;3.72;;;21.80;99.90;;;;;;4146028;28;20029;-73
2021/07/17 09:00:09;;;;;;;7.82;3.42;;;21.90;99.90;;;;;;4137486;28;20065;-73
2021/07/17 09:02:10;;;;;;;9.82;3.20;;;22.00;99.90;;;;;;4135608;28;20037;-75
2021/07/17 09:04:10;;;;;;;11.48;3.53;;;22.10;99.90;;;;;;4123298;28;20096;-74
2021/07/17 09:06:11;;;;;;;10.15;3.08;;;22.20;99.90;;;;;;4134373;28;20038;-73
2021/07/17 09:08:14;;;;;;;7.20;2.65;;;22.30;99.90;;;;;;4132292;28;20132;-73
2021/07/17 09:10:32;;;;;;;;;;;22.30;99.90;;;;;;4136820;28;20038;-73
2021/07/17 09:12:33;;;;;;;7.43;3.42;;;22.40;99.90;;;;;;4126679;28;19967;-73
2021/07/17 09:14:40;;;;;;;8.82;3.08;;;22.40;99.90;;;;;;4137435;28;20496;-73
2021/07/17 09:16:40;;;;;;;7.30;2.85;;;22.40;99.90;;;;;;4118075;28;20086;-73
2021/07/17 09:18:47;;;;;;;10.18;3.30;;;22.50;99.90;;;;;;4124218;28;20046;-74
2021/07/17 09:21:21;;;;;;;8.25;2.92;;;22.70;99.90;;;;;;4140169;28;20140;-74
2021/07/17 09:23:29;;;;;;;7.18;3.17;;;22.80;99.90;;;;;;4137713;28;20394;-74
2021/07/17 09:25:48;;;;;;;9.77;2.55;;;22.90;99.90;;;;;;4124763;28;20704;-73
2021/07/17 09:27:49;;;;;;;11.52;3.40;;;23.00;99.90;;;;;;4103698;28;20031;-74
2021/07/17 09:29:49;;;;;;;11.85;3.53;;;23.20;99.90;;;;;;4138738;28;20057;-74
2021/07/17 09:31:50;;;;;;;9.10;2.70;;;23.30;99.90;;;;;;4140921;28;20393;-74
2021/07/17 09:33:51;;;;;;;4.95;2.50;;;23.40;99.90;;;;;;4145720;28;20034;-74
2021/07/17 09:35:54;;;;;;;8.02;3.17;;;23.50;99.90;;;;;;4123424;28;20092;-74
2021/07/17 09:38:00;;;;;;;10.10;3.13;;;23.60;99.90;;;;;;4127755;28;20093;-74
2021/07/17 09:40:01;;;;;;;6.60;3.42;;;23.60;99.90;;;;;;4141584;28;20049;-74
2021/07/17 09:42:08;;;;;;;5.35;2.70;;;23.60;99.90;;;;;;4138161;28;20046;-74
2021/07/17 09:44:09;;;;;;;6.88;2.35;;;23.80;99.90;;;;;;4127430;28;20034;-74
2021/07/17 09:46:18;;;;;;;6.20;2.70;;;23.80;99.90;;;;;;4143540;28;20477;-74
2021/07/17 09:48:31;;;;;;;8.52;2.50;;;23.80;99.90;;;;;;4142743;28;20048;-74
2021/07/17 09:50:35;;;;;;;6.55;2.33;;;23.90;99.90;;;;;;4147384;28;20429;-74
2021/07/17 09:52:41;;;;;;;9.88;3.30;;;24.00;99.90;;;;;;4123083;28;20228;-73
2021/07/17 09:55:09;;;;;;;7.32;3.30;;;24.10;99.90;;;;;;4145335;28;20433;-74
2021/07/17 09:57:10;;;;;;;6.63;2.55;;;24.10;99.90;;;;;;4139370;28;20033;-74
2021/07/17 09:59:13;;;;;;;6.10;2.47;;;24.20;99.90;;;;;;4132236;28;20418;-74
2021/07/17 10:01:24;;;;;;;6.57;3.25;;;24.30;99.90;;;;;;4124331;28;20426;-73
2021/07/17 10:03:34;;;;;;;6.70;2.85;;;24.30;99.90;;;;;;4111795;28;20527;-74
2021/07/17 10:05:38;;;;;;;7.03;2.10;;;24.30;99.90;;;;;;4125239;28;20596;-74
2021/07/17 10:07:39;;;;;;;6.47;2.30;;;24.50;99.90;;;;;;4145243;28;20108;-74
2021/07/17 10:09:39;;;;;;;3.90;2.17;;;24.50;99.90;;;;;;4138813;28;20054;-74
2021/07/17 10:11:42;;;;;;;5.78;2.25;;;24.60;99.90;;;;;;4134869;28;20037;-74
2021/07/17 10:13:42;;;;;;;7.60;2.50;;;24.60;99.90;;;;;;4144200;28;20492;-74
2021/07/17 10:15:43;;;;;;;5.38;2.58;;;24.70;99.90;;;;;;4124716;28;20043;-74
2021/07/17 10:17:45;;;;;;;6.28;2.55;;;24.80;99.90;;;;;;4141255;28;20076;-74
2021/07/17 10:19:46;;;;;;;7.43;2.38;;;24.80;99.90;;;;;;4151038;28;20533;-74
2021/07/17 10:21:47;;;;;;;3.63;2.20;;;24.70;99.90;;;;;;4128956;28;20034;-74
2021/07/17 10:23:48;;;;;;;6.63;2.38;;;24.70;99.90;;;;;;4127580;28;20116;-74
2021/07/17 10:25:49;;;;;;;4.15;2.00;;;24.80;99.90;;;;;;4154116;28;20042;-74